DLH13A LSGG-EDDN
Flight info
| Callsign | DLH13A |
|---|---|
| Flight time | 0h 52m |
| Altitude | 30000 |
| Route | SOSAL N871 KORED DCT BERSU DCT DITON/N0401F310 DCT LOKTA DCT TEDGO N869 LETKU LETKU1V |
| Aircraft | A20N/M-SDE2E3FGHIRWXY/LB1 |
Departure
| Time | 2026-05-07 18:58 |
|---|---|
| Airport | Geneva International Airport (LSGG) |
Arrival
| Time | 2026-05-07 19:51 |
|---|---|
| Airport | Nuremberg Airport (EDDN) |
| Time | Latitude | Longitude | Altitude | Speed | Heading |
|---|---|---|---|---|---|
| 2026-05-07 18:22 | 46.22951 | 6.10446 | 1414 ft | 0 kts | 136° |
| 2026-05-07 18:42 | 46.22958 | 6.10435 | 1410 ft | 2 kts | 136° |
| 2026-05-07 18:42 | 46.22969 | 6.10420 | 1411 ft | 2 kts | 139° |
| 2026-05-07 18:42 | 46.22975 | 6.10413 | 1412 ft | 1 kts | 149° |
| 2026-05-07 18:43 | 46.22982 | 6.10407 | 1412 ft | 1 kts | 171° |
| 2026-05-07 18:43 | 46.22990 | 6.10406 | 1409 ft | 1 kts | 193° |
| 2026-05-07 18:43 | 46.22998 | 6.10410 | 1413 ft | 1 kts | 217° |
| 2026-05-07 18:43 | 46.23001 | 6.10413 | 1412 ft | 0 kts | 227° |
| 2026-05-07 18:48 | 46.22993 | 6.10401 | 1409 ft | 3 kts | 225° |
| 2026-05-07 18:48 | 46.22972 | 6.10370 | 1412 ft | 6 kts | 225° |
| 2026-05-07 18:49 | 46.22962 | 6.10306 | 1405 ft | 8 kts | 283° |
| 2026-05-07 18:49 | 46.22999 | 6.10238 | 1410 ft | 9 kts | 315° |
| 2026-05-07 18:49 | 46.23044 | 6.10170 | 1409 ft | 9 kts | 302° |
| 2026-05-07 18:49 | 46.23025 | 6.10085 | 1411 ft | 11 kts | 227° |
| 2026-05-07 18:50 | 46.22962 | 6.09992 | 1413 ft | 15 kts | 226° |
| 2026-05-07 18:50 | 46.22894 | 6.09889 | 1416 ft | 14 kts | 226° |
| 2026-05-07 18:50 | 46.22821 | 6.09786 | 1415 ft | 16 kts | 224° |
| 2026-05-07 18:50 | 46.22741 | 6.09667 | 1418 ft | 16 kts | 225° |
| 2026-05-07 18:51 | 46.22661 | 6.09547 | 1420 ft | 18 kts | 226° |
| 2026-05-07 18:51 | 46.22579 | 6.09419 | 1422 ft | 15 kts | 235° |
| 2026-05-07 18:51 | 46.22555 | 6.09330 | 1423 ft | 7 kts | 258° |
| 2026-05-07 18:51 | 46.22552 | 6.09266 | 1423 ft | 0 kts | 270° |
| 2026-05-07 18:57 | 46.22552 | 6.09264 | 1423 ft | 1 kts | 270° |
| 2026-05-07 18:57 | 46.22570 | 6.09175 | 1423 ft | 20 kts | 313° |
| 2026-05-07 18:57 | 46.22681 | 6.09245 | 1426 ft | 21 kts | 44° |
| 2026-05-07 18:58 | 46.22851 | 6.09493 | 1422 ft | 70 kts | 46° |
| 2026-05-07 18:58 | 46.23402 | 6.10299 | 1415 ft | 149 kts | 45° |
| 2026-05-07 18:58 | 46.24224 | 6.11479 | 1985 ft | 165 kts | 45° |
| 2026-05-07 18:58 | 46.25018 | 6.12672 | 3108 ft | 166 kts | 45° |
| 2026-05-07 18:59 | 46.25844 | 6.13922 | 3965 ft | 182 kts | 46° |
| 2026-05-07 18:59 | 46.26796 | 6.15315 | 4738 ft | 204 kts | 44° |
| 2026-05-07 18:59 | 46.27868 | 6.16808 | 5452 ft | 222 kts | 44° |
| 2026-05-07 18:59 | 46.29033 | 6.18441 | 5958 ft | 247 kts | 45° |
| 2026-05-07 19:00 | 46.29893 | 6.19673 | 6331 ft | 265 kts | 45° |
| 2026-05-07 19:00 | 46.31232 | 6.21631 | 7041 ft | 280 kts | 46° |
| 2026-05-07 19:00 | 46.32606 | 6.23672 | 8027 ft | 286 kts | 46° |
| 2026-05-07 19:00 | 46.34006 | 6.25773 | 8969 ft | 294 kts | 46° |
| 2026-05-07 19:01 | 46.35441 | 6.27934 | 9918 ft | 302 kts | 47° |
| 2026-05-07 19:01 | 46.36743 | 6.30395 | 10580 ft | 318 kts | 62° |
| 2026-05-07 19:01 | 46.37567 | 6.33472 | 10987 ft | 339 kts | 76° |
| 2026-05-07 19:01 | 46.38154 | 6.36861 | 11584 ft | 353 kts | 77° |
| 2026-05-07 19:02 | 46.38760 | 6.40321 | 12475 ft | 358 kts | 76° |
| 2026-05-07 19:02 | 46.39418 | 6.43831 | 13356 ft | 363 kts | 74° |
| 2026-05-07 19:02 | 46.40115 | 6.47373 | 14186 ft | 368 kts | 73° |
| 2026-05-07 19:02 | 46.40839 | 6.50965 | 14737 ft | 373 kts | 73° |
| 2026-05-07 19:03 | 46.41572 | 6.54581 | 14937 ft | 375 kts | 73° |
| 2026-05-07 19:03 | 46.42297 | 6.58164 | 14989 ft | 376 kts | 73° |
| 2026-05-07 19:03 | 46.43019 | 6.61786 | 15004 ft | 376 kts | 73° |
| 2026-05-07 19:03 | 46.43788 | 6.65411 | 15009 ft | 376 kts | 68° |
| 2026-05-07 19:04 | 46.44893 | 6.68775 | 15018 ft | 375 kts | 58° |
| 2026-05-07 19:04 | 46.46409 | 6.71908 | 15003 ft | 374 kts | 49° |
| 2026-05-07 19:04 | 46.48131 | 6.74844 | 15002 ft | 374 kts | 47° |
| 2026-05-07 19:04 | 46.49788 | 6.77648 | 15019 ft | 374 kts | 48° |
| 2026-05-07 19:05 | 46.51451 | 6.80516 | 15013 ft | 374 kts | 49° |
| 2026-05-07 19:05 | 46.53113 | 6.83445 | 15011 ft | 374 kts | 50° |
| 2026-05-07 19:05 | 46.54750 | 6.86378 | 15016 ft | 375 kts | 50° |
| 2026-05-07 19:05 | 46.56386 | 6.89334 | 15028 ft | 374 kts | 50° |
| 2026-05-07 19:06 | 46.58014 | 6.92281 | 15020 ft | 374 kts | 50° |
| 2026-05-07 19:06 | 46.61271 | 6.98167 | 15032 ft | 374 kts | 50° |
| 2026-05-07 19:06 | 46.62911 | 7.01129 | 15226 ft | 375 kts | 50° |
| 2026-05-07 19:07 | 46.64472 | 7.03948 | 15580 ft | 376 kts | 50° |
| 2026-05-07 19:07 | 46.66166 | 7.07010 | 15956 ft | 378 kts | 50° |
| 2026-05-07 19:07 | 46.67805 | 7.09976 | 16362 ft | 380 kts | 50° |
| 2026-05-07 19:07 | 46.69485 | 7.13016 | 16891 ft | 383 kts | 50° |
| 2026-05-07 19:08 | 46.71156 | 7.16046 | 17592 ft | 385 kts | 50° |
| 2026-05-07 19:08 | 46.72831 | 7.19087 | 18577 ft | 382 kts | 50° |
| 2026-05-07 19:08 | 46.74486 | 7.22093 | 19531 ft | 378 kts | 50° |
| 2026-05-07 19:08 | 46.76125 | 7.25076 | 20536 ft | 372 kts | 50° |
| 2026-05-07 19:09 | 46.77727 | 7.27992 | 21534 ft | 366 kts | 50° |
| 2026-05-07 19:09 | 46.79302 | 7.30864 | 22589 ft | 358 kts | 50° |
| 2026-05-07 19:09 | 46.80809 | 7.33616 | 23646 ft | 349 kts | 50° |
| 2026-05-07 19:09 | 46.82306 | 7.36352 | 24578 ft | 338 kts | 49° |
| 2026-05-07 19:10 | 46.83652 | 7.38815 | 25463 ft | 326 kts | 49° |
| 2026-05-07 19:10 | 46.84548 | 7.40459 | 26085 ft | 316 kts | 49° |
| 2026-05-07 19:11 | 46.84879 | 7.41067 | 26322 ft | 311 kts | 49° |
| 2026-05-07 19:11 | 46.85853 | 7.42861 | 26885 ft | 307 kts | 49° |
| 2026-05-07 19:11 | 46.87197 | 7.45331 | 27233 ft | 312 kts | 49° |
| 2026-05-07 19:11 | 46.88544 | 7.47803 | 27629 ft | 314 kts | 49° |
| 2026-05-07 19:12 | 46.89915 | 7.50321 | 28009 ft | 316 kts | 49° |
| 2026-05-07 19:12 | 46.91283 | 7.52836 | 28371 ft | 319 kts | 49° |
| 2026-05-07 19:12 | 46.92459 | 7.55000 | 28683 ft | 321 kts | 48° |
| 2026-05-07 19:12 | 46.93848 | 7.57560 | 29035 ft | 324 kts | 48° |
| 2026-05-07 19:13 | 46.95277 | 7.60191 | 29142 ft | 336 kts | 48° |
| 2026-05-07 19:13 | 46.96688 | 7.62794 | 29453 ft | 339 kts | 48° |
| 2026-05-07 19:13 | 46.98184 | 7.65559 | 29842 ft | 342 kts | 48° |
| 2026-05-07 19:13 | 46.99677 | 7.68318 | 30007 ft | 352 kts | 48° |
| 2026-05-07 19:14 | 47.01233 | 7.71194 | 30028 ft | 366 kts | 49° |
| 2026-05-07 19:14 | 47.02808 | 7.74104 | 30028 ft | 380 kts | 49° |
| 2026-05-07 19:14 | 47.04480 | 7.77197 | 30030 ft | 394 kts | 49° |
| 2026-05-07 19:14 | 47.06215 | 7.80409 | 30032 ft | 409 kts | 49° |
| 2026-05-07 19:15 | 47.08009 | 7.83739 | 30031 ft | 423 kts | 49° |
| 2026-05-07 19:15 | 47.09859 | 7.87175 | 30033 ft | 437 kts | 49° |
| 2026-05-07 19:15 | 47.11750 | 7.90695 | 30033 ft | 450 kts | 49° |
| 2026-05-07 19:15 | 47.13596 | 7.94187 | 30028 ft | 463 kts | 52° |
| 2026-05-07 19:16 | 47.15241 | 7.97820 | 30026 ft | 474 kts | 56° |
| 2026-05-07 19:16 | 47.16988 | 8.01949 | 30022 ft | 477 kts | 56° |
| 2026-05-07 19:16 | 47.20450 | 8.10222 | 30026 ft | 474 kts | 56° |
| 2026-05-07 19:17 | 47.23075 | 8.16446 | 30025 ft | 474 kts | 56° |
| 2026-05-07 19:17 | 47.26408 | 8.24312 | 30026 ft | 473 kts | 56° |
| 2026-05-07 19:18 | 47.30148 | 8.32250 | 30026 ft | 469 kts | 45° |
| 2026-05-07 19:18 | 47.32545 | 8.35523 | 30042 ft | 465 kts | 34° |
| 2026-05-07 19:18 | 47.35171 | 8.38156 | 30045 ft | 463 kts | 28° |
| 2026-05-07 19:19 | 47.40674 | 8.43187 | 30047 ft | 462 kts | 29° |
| 2026-05-07 19:19 | 47.46072 | 8.48323 | 30045 ft | 462 kts | 31° |
| 2026-05-07 19:20 | 47.51446 | 8.53566 | 30051 ft | 462 kts | 31° |
| 2026-05-07 19:20 | 47.56815 | 8.58798 | 30050 ft | 462 kts | 31° |
| 2026-05-07 19:21 | 47.62142 | 8.63970 | 30051 ft | 461 kts | 31° |
| 2026-05-07 19:21 | 47.67611 | 8.69300 | 30039 ft | 460 kts | 31° |
| 2026-05-07 19:22 | 47.72773 | 8.74371 | 30230 ft | 460 kts | 31° |
| 2026-05-07 19:22 | 47.75439 | 8.77021 | 30476 ft | 462 kts | 31° |
| 2026-05-07 19:22 | 47.78107 | 8.79667 | 30689 ft | 464 kts | 31° |
| 2026-05-07 19:23 | 47.83489 | 8.84981 | 30671 ft | 463 kts | 31° |
| 2026-05-07 19:23 | 47.86165 | 8.87632 | 30552 ft | 462 kts | 31° |
| 2026-05-07 19:23 | 47.88809 | 8.90247 | 30429 ft | 460 kts | 31° |
| 2026-05-07 19:24 | 47.91466 | 8.92888 | 30305 ft | 458 kts | 31° |
| 2026-05-07 19:24 | 47.93928 | 8.95341 | 30186 ft | 457 kts | 31° |
| 2026-05-07 19:24 | 47.96564 | 8.97962 | 30075 ft | 455 kts | 31° |
| 2026-05-07 19:24 | 47.99197 | 9.00583 | 30061 ft | 455 kts | 31° |
| 2026-05-07 19:25 | 48.04390 | 9.05753 | 30059 ft | 454 kts | 32° |
| 2026-05-07 19:25 | 48.09655 | 9.11055 | 30069 ft | 454 kts | 32° |
| 2026-05-07 19:26 | 48.14933 | 9.16181 | 30063 ft | 450 kts | 26° |
| 2026-05-07 19:26 | 48.17794 | 9.18034 | 30057 ft | 446 kts | 15° |
| 2026-05-07 19:26 | 48.20661 | 9.19068 | 30059 ft | 442 kts | 6° |
| 2026-05-07 19:27 | 48.26729 | 9.19937 | 30058 ft | 440 kts | 3° |
| 2026-05-07 19:27 | 48.32832 | 9.20853 | 30077 ft | 440 kts | 4° |
| 2026-05-07 19:28 | 48.38854 | 9.21880 | 30068 ft | 440 kts | 5° |
| 2026-05-07 19:28 | 48.44962 | 9.22932 | 30069 ft | 439 kts | 5° |
| 2026-05-07 19:29 | 48.51049 | 9.23982 | 30071 ft | 439 kts | 5° |
| 2026-05-07 19:29 | 48.57114 | 9.25065 | 30077 ft | 440 kts | 8° |
| 2026-05-07 19:30 | 48.61894 | 9.27916 | 30070 ft | 450 kts | 32° |
| 2026-05-07 19:30 | 48.64331 | 9.30904 | 30076 ft | 454 kts | 44° |
| 2026-05-07 19:30 | 48.66362 | 9.34563 | 30071 ft | 456 kts | 50° |
| 2026-05-07 19:31 | 48.70180 | 9.41913 | 30071 ft | 455 kts | 49° |
| 2026-05-07 19:31 | 48.74205 | 9.49307 | 30069 ft | 455 kts | 47° |
| 2026-05-07 19:32 | 48.78272 | 9.56667 | 30070 ft | 455 kts | 47° |
| 2026-05-07 19:32 | 48.82152 | 9.63761 | 30064 ft | 455 kts | 47° |
| 2026-05-07 19:33 | 48.86183 | 9.71203 | 30071 ft | 455 kts | 48° |
| 2026-05-07 19:33 | 48.90186 | 9.78661 | 30030 ft | 455 kts | 48° |
| 2026-05-07 19:34 | 48.92161 | 9.82349 | 29741 ft | 454 kts | 48° |
| 2026-05-07 19:34 | 48.94169 | 9.86111 | 29402 ft | 451 kts | 48° |
| 2026-05-07 19:34 | 48.96158 | 9.89834 | 29046 ft | 449 kts | 48° |
| 2026-05-07 19:34 | 48.98108 | 9.93491 | 28713 ft | 447 kts | 48° |
| 2026-05-07 19:35 | 49.00043 | 9.97123 | 28375 ft | 446 kts | 49° |
| 2026-05-07 19:35 | 49.02033 | 10.00875 | 28018 ft | 444 kts | 49° |
| 2026-05-07 19:35 | 49.03946 | 10.04491 | 27405 ft | 440 kts | 49° |
| 2026-05-07 19:35 | 49.05864 | 10.08113 | 26456 ft | 437 kts | 49° |
| 2026-05-07 19:36 | 49.07768 | 10.11714 | 25424 ft | 435 kts | 49° |
| 2026-05-07 19:36 | 49.09662 | 10.15302 | 24422 ft | 432 kts | 49° |
| 2026-05-07 19:36 | 49.11543 | 10.18864 | 23407 ft | 429 kts | 49° |
| 2026-05-07 19:36 | 49.13408 | 10.22401 | 22304 ft | 426 kts | 49° |
| 2026-05-07 19:37 | 49.15368 | 10.25768 | 21229 ft | 421 kts | 43° |
| 2026-05-07 19:37 | 49.17437 | 10.28898 | 20182 ft | 418 kts | 42° |
| 2026-05-07 19:37 | 49.19496 | 10.31990 | 19176 ft | 414 kts | 42° |
| 2026-05-07 19:37 | 49.21538 | 10.35084 | 18175 ft | 410 kts | 43° |
| 2026-05-07 19:38 | 49.23340 | 10.38359 | 17092 ft | 408 kts | 57° |
| 2026-05-07 19:38 | 49.24473 | 10.42285 | 16353 ft | 398 kts | 73° |
| 2026-05-07 19:38 | 49.25154 | 10.46263 | 15976 ft | 378 kts | 75° |
| 2026-05-07 19:38 | 49.25788 | 10.50100 | 15241 ft | 371 kts | 75° |
| 2026-05-07 19:39 | 49.26365 | 10.53612 | 14533 ft | 366 kts | 75° |
| 2026-05-07 19:39 | 49.26993 | 10.57446 | 13901 ft | 358 kts | 75° |
| 2026-05-07 19:39 | 49.27598 | 10.61122 | 13367 ft | 360 kts | 74° |
| 2026-05-07 19:39 | 49.28209 | 10.64846 | 12840 ft | 359 kts | 75° |
| 2026-05-07 19:40 | 49.28822 | 10.68573 | 12328 ft | 359 kts | 75° |
| 2026-05-07 19:40 | 49.29429 | 10.72267 | 11814 ft | 356 kts | 75° |
| 2026-05-07 19:40 | 49.30033 | 10.75928 | 11311 ft | 352 kts | 75° |
| 2026-05-07 19:40 | 49.30633 | 10.79568 | 10707 ft | 352 kts | 75° |
| 2026-05-07 19:41 | 49.31233 | 10.83198 | 10097 ft | 352 kts | 75° |
| 2026-05-07 19:41 | 49.31834 | 10.86837 | 9444 ft | 352 kts | 75° |
| 2026-05-07 19:41 | 49.32434 | 10.90468 | 8790 ft | 351 kts | 75° |
| 2026-05-07 19:41 | 49.33025 | 10.94082 | 8144 ft | 350 kts | 75° |
| 2026-05-07 19:42 | 49.33610 | 10.97687 | 7595 ft | 346 kts | 75° |
| 2026-05-07 19:42 | 49.34180 | 11.01217 | 7208 ft | 337 kts | 75° |
| 2026-05-07 19:42 | 49.34734 | 11.04670 | 6838 ft | 329 kts | 75° |
| 2026-05-07 19:42 | 49.35273 | 11.08055 | 6468 ft | 326 kts | 75° |
| 2026-05-07 19:43 | 49.35809 | 11.11429 | 6075 ft | 324 kts | 75° |
| 2026-05-07 19:43 | 49.36335 | 11.14772 | 5688 ft | 321 kts | 74° |
| 2026-05-07 19:43 | 49.36852 | 11.18106 | 5306 ft | 320 kts | 74° |
| 2026-05-07 19:43 | 49.37354 | 11.21397 | 4925 ft | 317 kts | 74° |
| 2026-05-07 19:44 | 49.37844 | 11.24655 | 4540 ft | 315 kts | 74° |
| 2026-05-07 19:44 | 49.38329 | 11.27921 | 4240 ft | 312 kts | 74° |
| 2026-05-07 19:44 | 49.38805 | 11.31140 | 3983 ft | 309 kts | 74° |
| 2026-05-07 19:44 | 49.39282 | 11.34370 | 3989 ft | 310 kts | 74° |
| 2026-05-07 19:45 | 49.39766 | 11.37622 | 3997 ft | 311 kts | 74° |
| 2026-05-07 19:45 | 49.40247 | 11.40860 | 3997 ft | 311 kts | 74° |
| 2026-05-07 19:45 | 49.40735 | 11.44105 | 3994 ft | 311 kts | 72° |
| 2026-05-07 19:45 | 49.41701 | 11.47005 | 3994 ft | 307 kts | 46° |
| 2026-05-07 19:46 | 49.43398 | 11.48907 | 3992 ft | 301 kts | 19° |
| 2026-05-07 19:46 | 49.45430 | 11.49403 | 3989 ft | 297 kts | 352° |
| 2026-05-07 19:46 | 49.47387 | 11.48397 | 3994 ft | 294 kts | 326° |
| 2026-05-07 19:46 | 49.48789 | 11.46161 | 3988 ft | 294 kts | 299° |
| 2026-05-07 19:47 | 49.49376 | 11.43157 | 3994 ft | 296 kts | 273° |
| 2026-05-07 19:47 | 49.49050 | 11.40048 | 3994 ft | 299 kts | 254° |
| 2026-05-07 19:47 | 49.48395 | 11.36998 | 3996 ft | 298 kts | 253° |
| 2026-05-07 19:47 | 49.47800 | 11.34038 | 3994 ft | 280 kts | 259° |
| 2026-05-07 19:48 | 49.47650 | 11.31164 | 3913 ft | 263 kts | 273° |
| 2026-05-07 19:48 | 49.47823 | 11.28383 | 3561 ft | 260 kts | 279° |
| 2026-05-07 19:48 | 49.48118 | 11.25658 | 3208 ft | 257 kts | 280° |
| 2026-05-07 19:48 | 49.48374 | 11.23003 | 2856 ft | 253 kts | 280° |
| 2026-05-07 19:49 | 49.48627 | 11.20455 | 2536 ft | 239 kts | 279° |
| 2026-05-07 19:49 | 49.48858 | 11.18099 | 2212 ft | 212 kts | 279° |
| 2026-05-07 19:49 | 49.49065 | 11.16007 | 1973 ft | 183 kts | 279° |
| 2026-05-07 19:49 | 49.49243 | 11.14205 | 1721 ft | 158 kts | 279° |
| 2026-05-07 19:50 | 49.49411 | 11.12489 | 1476 ft | 162 kts | 278° |
| 2026-05-07 19:50 | 49.49582 | 11.10832 | 1251 ft | 159 kts | 279° |
| 2026-05-07 19:50 | 49.49750 | 11.09122 | 1076 ft | 159 kts | 277° |
| 2026-05-07 19:50 | 49.49888 | 11.07491 | 1045 ft | 124 kts | 277° |
| 2026-05-07 19:51 | 49.49991 | 11.06590 | 1034 ft | 66 kts | 278° |
| 2026-05-07 19:51 | 49.50030 | 11.05964 | 1032 ft | 17 kts | 229° |
| 2026-05-07 19:51 | 49.49927 | 11.05959 | 1034 ft | 16 kts | 168° |
| 2026-05-07 19:52 | 49.49852 | 11.06054 | 1032 ft | 5 kts | 107° |
| 2026-05-07 19:52 | 49.49848 | 11.06075 | 1032 ft | 6 kts | 107° |
| 2026-05-07 19:52 | 49.49836 | 11.06170 | 1030 ft | 12 kts | 96° |
| 2026-05-07 19:52 | 49.49825 | 11.06320 | 1031 ft | 16 kts | 97° |
| 2026-05-07 19:53 | 49.49808 | 11.06518 | 1029 ft | 21 kts | 103° |
| 2026-05-07 19:53 | 49.49773 | 11.06755 | 1026 ft | 24 kts | 102° |
| 2026-05-07 19:53 | 49.49756 | 11.07009 | 1033 ft | 24 kts | 100° |
| 2026-05-07 19:53 | 49.49724 | 11.07212 | 1036 ft | 0 kts | 116° |
| 2026-05-07 19:54 | 49.49714 | 11.07225 | 1036 ft | 4 kts | 144° |
| 2026-05-07 19:54 | 49.49668 | 11.07226 | 1035 ft | 10 kts | 182° |
| 2026-05-07 19:54 | 49.49633 | 11.07293 | 1035 ft | 9 kts | 99° |
| 2026-05-07 19:54 | 49.49621 | 11.07414 | 1035 ft | 13 kts | 96° |
| 2026-05-07 19:55 | 49.49606 | 11.07573 | 1036 ft | 17 kts | 98° |
| 2026-05-07 19:55 | 49.49570 | 11.07663 | 1035 ft | 11 kts | 172° |
| 2026-05-07 19:55 | 49.49537 | 11.07659 | 1033 ft | 0 kts | 183° |